createdAt,value
2017-02-20T00:00:25.318Z,23.26
2017-02-20T00:00:53.423Z,23.32
2017-02-20T00:01:21.358Z,23.35
2017-02-20T00:01:49.490Z,23.32
2017-02-20T00:02:17.664Z,23.35
2017-02-20T00:02:45.811Z,23.25
2017-02-20T00:03:14.009Z,23.35
2017-02-20T00:03:42.298Z,23.24
2017-02-20T00:04:10.446Z,23.38
2017-02-20T00:04:38.651Z,23.29
2017-02-20T00:05:06.744Z,23.32
2017-02-20T00:05:34.646Z,23.37
2017-02-20T00:06:02.933Z,23.28
2017-02-20T00:06:31.119Z,23.25
2017-02-20T00:06:59.187Z,23.41
2017-02-20T00:07:27.319Z,23.42
2017-02-20T00:07:55.483Z,23.41
2017-02-20T00:08:23.688Z,23.38
2017-02-20T00:08:51.830Z,23.37
2017-02-20T00:09:19.901Z,23.29
2017-02-20T00:09:47.833Z,23.26
2017-02-20T00:10:16.127Z,23.32
2017-02-20T00:10:44.361Z,23.24
2017-02-20T00:11:12.399Z,23.34
2017-02-20T00:11:40.766Z,23.26
2017-02-20T00:12:08.952Z,23.28
2017-02-20T00:12:37.051Z,23.35
2017-02-20T00:13:05.287Z,23.35
2017-02-20T00:13:33.318Z,23.26
2017-02-20T00:14:01.339Z,23.26
2017-02-20T00:14:29.594Z,23.29
2017-02-20T00:14:57.947Z,23.32
2017-02-20T00:15:26.050Z,23.29
2017-02-20T00:15:54.259Z,23.22
2017-02-20T00:16:22.480Z,23.32
2017-02-20T00:16:50.652Z,23.25
2017-02-20T00:17:18.866Z,23.26
2017-02-20T00:17:47.335Z,23.34
2017-02-20T00:18:15.494Z,23.26
2017-02-20T00:18:43.700Z,23.28
2017-02-20T00:19:11.992Z,23.28
2017-02-20T00:19:40.238Z,23.25
2017-02-20T00:20:08.610Z,23.28
2017-02-20T00:20:37.097Z,23.28
2017-02-20T00:21:05.173Z,23.34
2017-02-20T00:21:33.372Z,23.26
2017-02-20T00:22:01.561Z,23.26
2017-02-20T00:22:29.651Z,23.28
2017-02-20T00:22:57.787Z,23.28
2017-02-20T00:23:25.839Z,23.34
2017-02-20T00:23:53.883Z,23.24
2017-02-20T00:24:21.891Z,23.26
2017-02-20T00:24:50.135Z,23.21
2017-02-20T00:25:18.446Z,23.24
2017-02-20T00:25:46.633Z,23.28
2017-02-20T00:26:14.681Z,23.28
2017-02-20T00:26:42.741Z,23.24
2017-02-20T00:27:11.058Z,23.32
2017-02-20T00:27:39.189Z,23.34
2017-02-20T00:28:07.325Z,23.28
2017-02-20T00:28:35.558Z,23.28
2017-02-20T00:29:03.638Z,23.26
2017-02-20T00:29:31.792Z,23.29
2017-02-20T00:29:59.971Z,23.29
2017-02-20T00:30:28.267Z,23.35
2017-02-20T00:30:56.628Z,23.25
2017-02-20T00:31:24.719Z,23.24
2017-02-20T00:31:53.062Z,23.28
2017-02-20T00:32:21.187Z,23.22
2017-02-20T00:32:49.221Z,23.24
2017-02-20T00:33:17.416Z,23.29
2017-02-20T00:33:45.785Z,23.28
2017-02-20T00:34:13.898Z,23.22
2017-02-20T00:34:41.998Z,23.24
2017-02-20T00:35:10.525Z,23.26
2017-02-20T00:35:38.744Z,23.29
2017-02-20T00:36:06.920Z,23.21
2017-02-20T00:36:35.073Z,23.22
2017-02-20T00:37:03.284Z,23.26
2017-02-20T00:37:31.406Z,23.26
2017-02-20T00:37:59.657Z,23.22
2017-02-20T00:38:28.056Z,23.28
2017-02-20T00:38:56.258Z,23.24
2017-02-20T00:39:24.311Z,23.21
2017-02-20T00:39:52.539Z,23.24
2017-02-20T00:40:20.884Z,23.24
2017-02-20T00:40:49.107Z,23.16
2017-02-20T00:41:17.151Z,23.19
2017-02-20T00:41:45.220Z,23.16
2017-02-20T00:42:13.551Z,23.14
2017-02-20T00:42:41.628Z,23.12
2017-02-20T00:43:09.758Z,23.18
2017-02-20T00:43:37.765Z,23.21
2017-02-20T00:44:06.089Z,23.18
2017-02-20T00:44:34.263Z,23.16
2017-02-20T00:45:02.672Z,23.21
2017-02-20T00:45:30.761Z,23.21
2017-02-20T00:45:58.974Z,23.25
2017-02-20T00:46:27.067Z,23.25
2017-02-20T00:46:55.410Z,23.26
2017-02-20T00:47:23.590Z,23.22
2017-02-20T00:47:51.823Z,23.19
2017-02-20T00:48:19.927Z,23.24
2017-02-20T00:48:47.997Z,23.22
2017-02-20T00:49:16.163Z,23.16
2017-02-20T00:49:44.164Z,23.15
2017-02-20T00:50:12.264Z,23.18
2017-02-20T00:50:40.509Z,23.15
2017-02-20T00:51:08.560Z,23.12
2017-02-20T00:51:36.615Z,23.14
2017-02-20T00:52:04.715Z,23.18
2017-02-20T00:52:32.957Z,23.14
2017-02-20T00:53:01.204Z,23.15
2017-02-20T00:53:29.524Z,23.09
2017-02-20T00:53:57.680Z,23.14
2017-02-20T00:54:25.805Z,23.16
2017-02-20T00:54:53.841Z,23.06
2017-02-20T00:55:22.177Z,23.06
2017-02-20T00:55:50.319Z,23.07
2017-02-20T00:56:18.473Z,23.07
2017-02-20T00:56:46.566Z,23.06
2017-02-20T00:57:14.705Z,23.07
2017-02-20T00:57:42.927Z,23.03
2017-02-20T00:58:10.996Z,22.97
2017-02-20T00:58:39.153Z,23.09
2017-02-20T00:59:07.219Z,23.03
2017-02-20T00:59:35.139Z,22.99
2017-02-20T01:00:03.291Z,23.03
2017-02-20T01:00:31.351Z,22.99
2017-02-20T01:00:59.302Z,23.04
2017-02-20T01:01:27.505Z,23
2017-02-20T01:01:55.699Z,22.99
2017-02-20T01:02:23.658Z,23.03
2017-02-20T01:02:51.863Z,23
2017-02-20T01:03:20.101Z,23.1
2017-02-20T01:03:48.439Z,23.04
2017-02-20T01:04:16.503Z,23.03
2017-02-20T01:04:44.585Z,22.99
2017-02-20T01:05:12.702Z,23.06
2017-02-20T01:05:41.000Z,23
2017-02-20T01:06:09.096Z,23.01
2017-02-20T01:06:37.181Z,23.04
2017-02-20T01:07:05.320Z,23.09
2017-02-20T01:07:33.658Z,22.96
2017-02-20T01:08:01.899Z,23.01
2017-02-20T01:08:29.948Z,22.91
2017-02-20T01:08:58.360Z,22.96
2017-02-20T01:09:26.582Z,23.01
2017-02-20T01:09:54.850Z,23.07
2017-02-20T01:10:23.216Z,22.91
2017-02-20T01:10:51.247Z,22.94
2017-02-20T01:11:19.282Z,22.91
2017-02-20T01:11:47.783Z,23.01
2017-02-20T01:12:15.917Z,22.94
2017-02-20T01:12:44.059Z,22.96
2017-02-20T01:13:12.220Z,23.04
2017-02-20T01:13:40.425Z,22.99
2017-02-20T01:14:08.556Z,23
2017-02-20T01:14:36.716Z,23.03
2017-02-20T01:15:05.129Z,23.03
2017-02-20T01:15:33.246Z,22.97
2017-02-20T01:16:01.459Z,23.07
2017-02-20T01:16:29.777Z,23
2017-02-20T01:16:58.236Z,22.97
2017-02-20T01:17:26.386Z,23.03
2017-02-20T01:17:54.575Z,23.04
2017-02-20T01:18:22.811Z,23.04
2017-02-20T01:18:51.145Z,22.99
2017-02-20T01:19:19.285Z,23.03
2017-02-20T01:19:47.527Z,23.06
2017-02-20T01:20:15.760Z,23.03
2017-02-20T01:20:43.969Z,23.06
2017-02-20T01:21:12.094Z,23.04
2017-02-20T01:21:40.588Z,23
2017-02-20T01:22:08.739Z,22.96
2017-02-20T01:22:36.876Z,22.96
2017-02-20T01:23:04.941Z,23.1
2017-02-20T01:23:33.406Z,23.06
2017-02-20T01:24:01.436Z,23.01
2017-02-20T01:24:29.595Z,23.04
2017-02-20T01:24:57.750Z,22.92
2017-02-20T01:25:26.019Z,22.97
2017-02-20T01:25:54.257Z,23.01
2017-02-20T01:26:22.372Z,23.03
2017-02-20T01:26:50.436Z,22.97
2017-02-20T01:27:18.503Z,22.96
2017-02-20T01:27:46.551Z,22.99
2017-02-20T01:28:14.670Z,22.96
2017-02-20T01:28:42.726Z,22.99
2017-02-20T01:29:10.757Z,22.92
2017-02-20T01:29:38.850Z,22.99
2017-02-20T01:30:06.968Z,22.96
2017-02-20T01:30:35.261Z,22.97
2017-02-20T01:31:03.259Z,22.86
2017-02-20T01:31:31.543Z,22.94
2017-02-20T01:31:59.634Z,22.88
2017-02-20T01:32:27.844Z,22.96
2017-02-20T01:32:55.981Z,22.99
2017-02-20T01:33:24.117Z,22.97
2017-02-20T01:33:52.371Z,23
2017-02-20T01:34:20.610Z,22.96
2017-02-20T01:34:48.636Z,22.97
2017-02-20T01:35:16.943Z,22.99
2017-02-20T01:35:45.089Z,22.99
2017-02-20T01:36:13.250Z,22.92
2017-02-20T01:36:41.686Z,22.92
2017-02-20T01:37:09.840Z,22.96
2017-02-20T01:37:37.980Z,22.94
2017-02-20T01:38:06.389Z,22.96
2017-02-20T01:38:34.520Z,22.91
2017-02-20T01:39:02.775Z,22.99
2017-02-20T01:39:30.725Z,22.92
2017-02-20T01:39:58.865Z,22.92
2017-02-20T01:40:26.993Z,22.97
2017-02-20T01:40:55.244Z,22.97
2017-02-20T01:41:23.378Z,22.89
2017-02-20T01:41:51.472Z,22.91
2017-02-20T01:42:19.537Z,22.92
2017-02-20T01:42:47.857Z,22.89
2017-02-20T01:43:15.981Z,22.91
2017-02-20T01:43:43.978Z,22.85
2017-02-20T01:44:12.099Z,22.89
2017-02-20T01:44:40.402Z,22.88
2017-02-20T01:45:08.573Z,22.88
2017-02-20T01:45:36.641Z,22.85
2017-02-20T01:46:04.765Z,22.88
2017-02-20T01:46:32.953Z,22.85
2017-02-20T01:47:00.950Z,22.85
2017-02-20T01:47:29.153Z,22.85
2017-02-20T01:47:57.262Z,22.88
2017-02-20T01:48:25.640Z,22.76
2017-02-20T01:48:53.697Z,22.82
2017-02-20T01:49:21.787Z,22.78
2017-02-20T01:49:50.052Z,22.78
2017-02-20T01:50:18.077Z,22.78
2017-02-20T01:50:46.498Z,22.78
2017-02-20T01:51:14.759Z,22.79
2017-02-20T01:51:43.278Z,22.81
2017-02-20T01:52:11.350Z,22.81
2017-02-20T01:52:39.424Z,22.84
2017-02-20T01:53:07.632Z,22.88
2017-02-20T01:53:35.603Z,22.85
2017-02-20T01:54:03.811Z,22.82
2017-02-20T01:54:31.745Z,22.84
2017-02-20T01:55:00.188Z,22.86
2017-02-20T01:55:28.440Z,22.82
2017-02-20T01:55:56.747Z,22.85
2017-02-20T01:56:24.738Z,22.84
2017-02-20T01:56:52.776Z,22.85
2017-02-20T01:57:20.933Z,22.85
2017-02-20T01:57:49.068Z,22.84
2017-02-20T01:58:17.170Z,22.82
2017-02-20T01:58:45.244Z,22.86
2017-02-20T01:59:13.258Z,22.84
2017-02-20T01:59:41.230Z,22.76
2017-02-20T02:00:09.503Z,22.75
2017-02-20T02:00:37.763Z,22.78
2017-02-20T02:01:05.946Z,22.75
2017-02-20T02:01:34.081Z,22.71
2017-02-20T02:02:02.178Z,22.66
2017-02-20T02:02:30.412Z,22.71
2017-02-20T02:02:58.524Z,22.66
2017-02-20T02:03:26.694Z,22.69
2017-02-20T02:03:54.918Z,22.67
2017-02-20T02:04:22.977Z,22.67
2017-02-20T02:04:51.083Z,22.64
2017-02-20T02:05:19.103Z,22.64
2017-02-20T02:05:47.129Z,22.64
2017-02-20T02:06:15.522Z,22.6
2017-02-20T02:06:43.539Z,22.63
2017-02-20T02:07:11.752Z,22.64
2017-02-20T02:07:39.919Z,22.59
2017-02-20T02:08:07.969Z,22.59
2017-02-20T02:08:36.031Z,22.54
2017-02-20T02:09:04.214Z,22.52
2017-02-20T02:09:32.189Z,22.54
2017-02-20T02:10:00.442Z,22.52
2017-02-20T02:10:28.543Z,22.57
2017-02-20T02:10:56.714Z,22.57
2017-02-20T02:11:24.856Z,22.54
2017-02-20T02:11:52.804Z,22.57
2017-02-20T02:12:20.938Z,22.51
2017-02-20T02:12:49.145Z,22.55
2017-02-20T02:13:17.356Z,22.57
2017-02-20T02:13:45.407Z,22.55
2017-02-20T02:14:13.498Z,22.52
2017-02-20T02:14:41.621Z,22.59
2017-02-20T02:15:09.582Z,22.59
2017-02-20T02:15:37.630Z,22.57
2017-02-20T02:16:05.702Z,22.61
2017-02-20T02:16:33.614Z,22.52
2017-02-20T02:17:01.837Z,22.54
2017-02-20T02:17:29.841Z,22.54
2017-02-20T02:17:57.887Z,22.63
2017-02-20T02:18:26.065Z,22.6
2017-02-20T02:18:54.207Z,22.63
2017-02-20T02:19:22.238Z,22.64
2017-02-20T02:19:50.627Z,22.59
2017-02-20T02:20:18.861Z,22.64
2017-02-20T02:20:47.001Z,22.63
2017-02-20T02:21:15.209Z,22.73
2017-02-20T02:21:43.435Z,22.64
2017-02-20T02:22:11.541Z,22.7
2017-02-20T02:22:39.504Z,22.67
2017-02-20T02:23:07.696Z,22.71
2017-02-20T02:23:35.648Z,22.7
2017-02-20T02:24:03.911Z,22.66
2017-02-20T02:24:32.124Z,22.67
2017-02-20T02:25:00.204Z,22.6
2017-02-20T02:25:28.236Z,22.71
2017-02-20T02:25:56.353Z,22.67
2017-02-20T02:26:24.810Z,22.66
2017-02-20T02:26:52.942Z,22.6
2017-02-20T02:27:21.128Z,22.55
2017-02-20T02:27:49.123Z,22.59
2017-02-20T02:28:17.144Z,22.61
2017-02-20T02:28:45.388Z,22.6
2017-02-20T02:29:13.478Z,22.52
2017-02-20T02:29:41.710Z,22.59
2017-02-20T02:30:09.958Z,22.61
2017-02-20T02:30:38.015Z,22.55
2017-02-20T02:31:06.266Z,22.54
2017-02-20T02:31:34.607Z,22.57
2017-02-20T02:32:02.761Z,22.46
2017-02-20T02:32:30.953Z,22.45
2017-02-20T02:32:59.005Z,22.44
2017-02-20T02:33:27.052Z,22.42
2017-02-20T02:33:55.286Z,22.33
2017-02-20T02:34:23.433Z,22.41
2017-02-20T02:34:51.587Z,22.36
2017-02-20T02:35:19.649Z,22.38
2017-02-20T02:35:47.773Z,22.39
2017-02-20T02:36:16.029Z,22.36
2017-02-20T02:36:44.050Z,22.38
2017-02-20T02:37:12.262Z,22.26
2017-02-20T02:37:40.352Z,22.23
2017-02-20T02:38:08.399Z,22.27
2017-02-20T02:38:36.502Z,22.23
2017-02-20T02:39:04.650Z,22.24
2017-02-20T02:39:32.727Z,22.23
2017-02-20T02:40:00.806Z,22.18
2017-02-20T02:40:28.736Z,22.22
2017-02-20T02:40:56.946Z,22.2
2017-02-20T02:41:25.449Z,22.26
2017-02-20T02:41:53.527Z,22.24
2017-02-20T02:42:21.682Z,22.23
2017-02-20T02:42:49.889Z,22.24
2017-02-20T02:43:18.083Z,22.24
2017-02-20T02:43:46.265Z,22.26
2017-02-20T02:44:14.378Z,22.23
2017-02-20T02:44:42.496Z,22.33
2017-02-20T02:45:10.541Z,22.34
2017-02-20T02:45:38.422Z,22.26
2017-02-20T02:46:06.598Z,22.27
2017-02-20T02:46:34.861Z,22.29
2017-02-20T02:47:03.069Z,22.38
2017-02-20T02:47:31.233Z,22.36
2017-02-20T02:47:59.318Z,22.34
2017-02-20T02:48:27.340Z,22.33
2017-02-20T02:48:55.447Z,22.38
2017-02-20T02:49:23.510Z,22.36
2017-02-20T02:49:51.567Z,22.38
2017-02-20T02:50:19.680Z,22.41
2017-02-20T02:50:47.833Z,22.39
2017-02-20T02:51:16.026Z,22.27
2017-02-20T02:51:44.355Z,22.36
2017-02-20T02:52:12.384Z,22.23
2017-02-20T02:52:40.528Z,22.27
2017-02-20T02:53:08.707Z,22.23
2017-02-20T02:53:36.963Z,22.26
2017-02-20T02:54:05.478Z,22.27
2017-02-20T02:54:33.630Z,22.18
2017-02-20T02:55:01.667Z,22.24
2017-02-20T02:55:29.779Z,22.3
2017-02-20T02:55:57.997Z,22.22
2017-02-20T02:56:26.353Z,22.23
2017-02-20T02:56:54.671Z,22.16
2017-02-20T02:57:22.697Z,22.2
2017-02-20T02:57:50.831Z,22.15
2017-02-20T02:58:19.198Z,22.2
2017-02-20T02:58:47.257Z,22.2
2017-02-20T02:59:15.392Z,22.14
2017-02-20T02:59:44.138Z,22.14
2017-02-20T03:00:12.245Z,22.15
2017-02-20T03:00:40.355Z,22.12
2017-02-20T03:01:08.438Z,22.14
2017-02-20T03:01:36.546Z,22.09
2017-02-20T03:02:04.604Z,22.02
2017-02-20T03:02:32.953Z,22.14
2017-02-20T03:03:01.088Z,22.11
2017-02-20T03:03:29.274Z,22.02
2017-02-20T03:03:57.493Z,22.14
2017-02-20T03:04:25.744Z,22.04
2017-02-20T03:04:53.856Z,22.11
2017-02-20T03:05:21.805Z,22.08
2017-02-20T03:05:50.171Z,22.07
2017-02-20T03:06:18.268Z,22.2
2017-02-20T03:06:46.507Z,22.12
2017-02-20T03:07:14.907Z,22.09
2017-02-20T03:07:42.793Z,22.15
2017-02-20T03:08:10.959Z,22.14
2017-02-20T03:08:39.048Z,22.02
2017-02-20T03:09:07.358Z,22.04
2017-02-20T03:09:35.477Z,22.02
2017-02-20T03:10:03.620Z,22.02
2017-02-20T03:10:31.760Z,21.99
2017-02-20T03:10:59.939Z,22.05
2017-02-20T03:11:28.344Z,22.02
2017-02-20T03:11:56.662Z,22.05
2017-02-20T03:12:24.800Z,22
2017-02-20T03:12:53.188Z,22.02
2017-02-20T03:13:21.528Z,22.05
2017-02-20T03:13:49.715Z,22.05
2017-02-20T03:14:17.930Z,22
2017-02-20T03:14:46.120Z,21.94
2017-02-20T03:15:14.271Z,21.97
2017-02-20T03:15:42.470Z,21.97
2017-02-20T03:16:10.504Z,21.96
2017-02-20T03:16:38.660Z,21.93
2017-02-20T03:17:06.812Z,21.89
2017-02-20T03:17:35.025Z,21.9
2017-02-20T03:18:03.402Z,21.92
2017-02-20T03:18:31.608Z,21.89
2017-02-20T03:18:59.794Z,21.9
2017-02-20T03:19:27.926Z,21.93
2017-02-20T03:19:56.326Z,21.85
2017-02-20T03:20:24.385Z,21.89
2017-02-20T03:20:52.500Z,21.89
2017-02-20T03:21:20.717Z,21.9
2017-02-20T03:21:49.076Z,21.9
2017-02-20T03:22:17.328Z,21.92
2017-02-20T03:22:45.445Z,21.85
2017-02-20T03:23:13.825Z,21.85
2017-02-20T03:23:41.947Z,21.83
2017-02-20T03:24:10.042Z,21.92
2017-02-20T03:24:38.098Z,21.8
2017-02-20T03:25:06.467Z,21.92
2017-02-20T03:25:34.646Z,21.89
2017-02-20T03:26:02.772Z,21.86
2017-02-20T03:26:30.952Z,21.89
2017-02-20T03:26:59.473Z,21.85
2017-02-20T03:27:27.587Z,21.85
2017-02-20T03:27:55.720Z,21.86
2017-02-20T03:28:24.117Z,21.86
2017-02-20T03:28:52.192Z,21.82
2017-02-20T03:29:20.366Z,21.85
2017-02-20T03:29:48.859Z,21.97
2017-02-20T03:30:16.808Z,21.9
2017-02-20T03:30:44.993Z,21.9
2017-02-20T03:31:12.933Z,21.93
2017-02-20T03:31:41.284Z,21.99
2017-02-20T03:32:09.576Z,21.97
2017-02-20T03:32:37.780Z,21.94
2017-02-20T03:33:06.136Z,21.96
2017-02-20T03:33:34.346Z,21.99
2017-02-20T03:34:02.483Z,21.97
2017-02-20T03:34:30.726Z,21.97
2017-02-20T03:34:58.884Z,21.94
2017-02-20T03:35:27.002Z,21.93
2017-02-20T03:35:55.075Z,22.02
2017-02-20T03:36:22.860Z,21.93
2017-02-20T03:36:51.078Z,21.96
2017-02-20T03:37:19.291Z,21.93
2017-02-20T03:37:47.440Z,22
2017-02-20T03:38:15.584Z,21.93
2017-02-20T03:38:43.619Z,21.97
2017-02-20T03:39:11.663Z,22.02
2017-02-20T03:39:39.721Z,21.93
2017-02-20T03:40:08.065Z,21.97
2017-02-20T03:40:36.288Z,21.97
2017-02-20T03:41:04.439Z,21.93
2017-02-20T03:41:32.695Z,21.85
2017-02-20T03:42:01.014Z,21.85
2017-02-20T03:42:29.119Z,21.85
2017-02-20T03:42:57.288Z,21.86
2017-02-20T03:43:25.597Z,21.99
2017-02-20T03:43:53.811Z,21.82
2017-02-20T03:44:21.814Z,21.99
2017-02-20T03:44:50.013Z,21.85
2017-02-20T03:45:18.304Z,21.89
2017-02-20T03:45:46.322Z,21.89
2017-02-20T03:46:14.465Z,21.89
2017-02-20T03:46:42.954Z,21.86
2017-02-20T03:47:11.166Z,21.93
2017-02-20T03:47:39.164Z,21.85
2017-02-20T03:48:07.371Z,21.92
2017-02-20T03:48:35.487Z,21.86
2017-02-20T03:49:03.711Z,21.85
2017-02-20T03:49:31.896Z,21.94
2017-02-20T03:49:59.986Z,21.86
2017-02-20T03:50:28.277Z,21.8
2017-02-20T03:50:56.366Z,21.85
2017-02-20T03:51:24.511Z,21.85
2017-02-20T03:51:53.109Z,21.86
2017-02-20T03:52:21.248Z,21.94
2017-02-20T03:52:49.453Z,21.89
2017-02-20T03:53:17.751Z,21.89
2017-02-20T03:53:45.650Z,21.89
2017-02-20T03:54:13.695Z,21.92
2017-02-20T03:54:41.635Z,21.89
2017-02-20T03:55:09.799Z,21.86
2017-02-20T03:55:37.921Z,21.86
2017-02-20T03:56:06.079Z,21.89
2017-02-20T03:56:34.116Z,21.85
2017-02-20T03:57:02.540Z,21.9
2017-02-20T03:57:30.551Z,21.85
2017-02-20T03:57:58.629Z,21.82
2017-02-20T03:58:26.834Z,21.77
2017-02-20T03:58:55.061Z,21.83
2017-02-20T03:59:23.096Z,21.83
2017-02-20T03:59:51.118Z,21.73
2017-02-20T04:00:19.093Z,21.76
2017-02-20T04:00:47.144Z,21.8
2017-02-20T04:01:15.362Z,21.7
2017-02-20T04:01:43.611Z,21.7
2017-02-20T04:02:12.167Z,21.68
2017-02-20T04:02:40.409Z,21.76
2017-02-20T04:03:08.568Z,21.73
2017-02-20T04:03:36.974Z,21.77
2017-02-20T04:04:05.179Z,21.74
2017-02-20T04:04:33.136Z,21.7
2017-02-20T04:05:01.228Z,21.73
2017-02-20T04:05:29.667Z,21.73
2017-02-20T04:05:57.718Z,21.76
2017-02-20T04:06:25.873Z,21.74
2017-02-20T04:06:54.109Z,21.7
2017-02-20T04:07:22.141Z,21.71
2017-02-20T04:07:50.149Z,21.7
2017-02-20T04:08:18.400Z,21.67
2017-02-20T04:08:46.408Z,21.73
2017-02-20T04:09:14.838Z,21.67
2017-02-20T04:09:42.939Z,21.7
2017-02-20T04:10:11.126Z,21.71
2017-02-20T04:10:39.297Z,21.73
2017-02-20T04:11:07.504Z,21.67
2017-02-20T04:11:35.842Z,21.66
2017-02-20T04:12:04.126Z,21.68
2017-02-20T04:12:32.299Z,21.71
2017-02-20T04:13:00.905Z,21.73
2017-02-20T04:13:29.103Z,21.68
2017-02-20T04:13:57.195Z,21.73
2017-02-20T04:14:25.473Z,21.77
2017-02-20T04:14:53.591Z,21.77
2017-02-20T04:15:21.381Z,21.78
2017-02-20T04:15:49.315Z,21.83
2017-02-20T04:16:17.520Z,21.77
2017-02-20T04:16:45.699Z,21.78
2017-02-20T04:17:14.218Z,21.77
2017-02-20T04:17:42.199Z,21.8
2017-02-20T04:18:10.274Z,21.83
2017-02-20T04:18:38.428Z,21.73
2017-02-20T04:19:06.545Z,21.8
2017-02-20T04:19:34.980Z,21.74
2017-02-20T04:20:03.043Z,21.8
2017-02-20T04:20:31.151Z,21.78
2017-02-20T04:20:59.391Z,21.8
2017-02-20T04:21:27.516Z,21.73
2017-02-20T04:21:55.695Z,21.82
2017-02-20T04:22:24.061Z,21.82
2017-02-20T04:22:52.060Z,21.83
2017-02-20T04:23:20.137Z,21.74
2017-02-20T04:23:48.158Z,21.76
2017-02-20T04:24:16.168Z,21.78
2017-02-20T04:24:44.358Z,21.7
2017-02-20T04:25:12.399Z,21.7
2017-02-20T04:25:40.526Z,21.68
2017-02-20T04:26:08.690Z,21.68
2017-02-20T04:26:36.896Z,21.8
2017-02-20T04:27:05.009Z,21.77
2017-02-20T04:27:33.232Z,21.77
2017-02-20T04:28:01.345Z,21.8
2017-02-20T04:28:29.507Z,21.76
2017-02-20T04:28:57.727Z,21.73
2017-02-20T04:29:25.634Z,21.76
2017-02-20T04:29:53.709Z,21.8
2017-02-20T04:30:21.820Z,21.76
2017-02-20T04:30:50.029Z,21.7
2017-02-20T04:31:18.084Z,21.74
2017-02-20T04:31:46.006Z,21.74
2017-02-20T04:32:14.116Z,21.76
2017-02-20T04:32:42.467Z,21.71
2017-02-20T04:33:10.600Z,21.68
2017-02-20T04:33:38.758Z,21.56
2017-02-20T04:34:07.028Z,21.56
2017-02-20T04:34:34.977Z,21.62
2017-02-20T04:35:03.167Z,21.64
2017-02-20T04:35:31.279Z,21.67
2017-02-20T04:35:59.323Z,21.56
2017-02-20T04:36:27.484Z,21.55
2017-02-20T04:36:55.516Z,21.53
2017-02-20T04:37:23.718Z,21.58
2017-02-20T04:37:51.791Z,21.58
2017-02-20T04:38:19.899Z,21.64
2017-02-20T04:38:47.850Z,21.59
2017-02-20T04:39:16.043Z,21.53
2017-02-20T04:39:43.992Z,21.52
2017-02-20T04:40:12.129Z,21.62
2017-02-20T04:40:40.351Z,21.58
2017-02-20T04:41:08.537Z,21.51
2017-02-20T04:41:36.826Z,21.61
2017-02-20T04:42:04.847Z,21.53
2017-02-20T04:42:33.227Z,21.55
2017-02-20T04:43:01.472Z,21.53
2017-02-20T04:43:29.626Z,21.53
2017-02-20T04:43:57.818Z,21.51
2017-02-20T04:44:25.854Z,21.46
2017-02-20T04:44:54.069Z,21.45
2017-02-20T04:45:22.278Z,21.49
2017-02-20T04:45:50.400Z,21.41
2017-02-20T04:46:18.580Z,21.41
2017-02-20T04:46:46.610Z,21.46
2017-02-20T04:47:14.667Z,21.43
2017-02-20T04:47:42.920Z,21.45
2017-02-20T04:48:10.849Z,21.49
2017-02-20T04:48:39.048Z,21.45
2017-02-20T04:49:07.255Z,21.4
2017-02-20T04:49:35.274Z,21.37
2017-02-20T04:50:03.293Z,21.4
2017-02-20T04:50:31.369Z,21.49
2017-02-20T04:50:59.564Z,21.38
2017-02-20T04:51:27.584Z,21.36
2017-02-20T04:51:55.718Z,21.41
2017-02-20T04:52:23.980Z,21.45
2017-02-20T04:52:52.205Z,21.33
2017-02-20T04:53:20.445Z,21.4
2017-02-20T04:53:48.542Z,21.37
2017-02-20T04:54:16.735Z,21.38
2017-02-20T04:54:44.970Z,21.27
2017-02-20T04:55:13.205Z,21.36
2017-02-20T04:55:41.422Z,21.28
2017-02-20T04:56:09.454Z,21.38
2017-02-20T04:56:37.598Z,21.43
2017-02-20T04:57:05.756Z,21.41
2017-02-20T04:57:33.925Z,21.33
2017-02-20T04:58:02.096Z,21.4
2017-02-20T04:58:30.198Z,21.37
2017-02-20T04:58:58.307Z,21.28
2017-02-20T04:59:26.333Z,21.33
2017-02-20T04:59:54.478Z,21.27
2017-02-20T05:00:22.681Z,21.34
2017-02-20T05:00:50.820Z,21.33
2017-02-20T05:01:18.872Z,21.3
2017-02-20T05:01:46.930Z,21.31
2017-02-20T05:02:15.093Z,21.28
2017-02-20T05:02:43.303Z,21.33
2017-02-20T05:03:11.248Z,21.34
2017-02-20T05:03:39.399Z,21.37
2017-02-20T05:04:07.606Z,21.34
2017-02-20T05:04:35.796Z,21.31
2017-02-20T05:05:03.812Z,21.34
2017-02-20T05:05:31.822Z,21.34
2017-02-20T05:05:59.993Z,21.28
2017-02-20T05:06:28.038Z,21.22
2017-02-20T05:06:56.167Z,21.25
2017-02-20T05:07:24.262Z,21.33
2017-02-20T05:07:52.382Z,21.27
2017-02-20T05:08:20.571Z,21.23
2017-02-20T05:08:48.769Z,21.22
2017-02-20T05:09:17.015Z,21.28
2017-02-20T05:09:45.241Z,21.21
2017-02-20T05:10:13.185Z,21.25
2017-02-20T05:10:41.251Z,21.31
2017-02-20T05:11:09.277Z,21.33
2017-02-20T05:11:37.311Z,21.33
2017-02-20T05:12:05.397Z,21.28
2017-02-20T05:12:33.564Z,21.27
2017-02-20T05:13:01.919Z,21.27
2017-02-20T05:13:29.956Z,21.25
2017-02-20T05:13:58.077Z,21.23
2017-02-20T05:14:26.291Z,21.28
2017-02-20T05:14:54.214Z,21.23
2017-02-20T05:15:22.352Z,21.28
2017-02-20T05:15:50.329Z,21.22
2017-02-20T05:16:18.401Z,21.23
2017-02-20T05:16:46.700Z,21.27
2017-02-20T05:17:14.831Z,21.34
2017-02-20T05:17:43.027Z,21.27
2017-02-20T05:18:11.317Z,21.31
2017-02-20T05:18:39.543Z,21.22
2017-02-20T05:19:07.748Z,21.21
2017-02-20T05:19:35.900Z,21.33
2017-02-20T05:20:03.965Z,21.23
2017-02-20T05:20:32.002Z,21.28
2017-02-20T05:21:00.095Z,21.22
2017-02-20T05:21:28.195Z,21.25
2017-02-20T05:21:56.335Z,21.23
2017-02-20T05:22:24.352Z,21.25
2017-02-20T05:22:52.318Z,21.25
2017-02-20T05:23:20.339Z,21.31
2017-02-20T05:23:48.349Z,21.28
2017-02-20T05:24:16.470Z,21.25
2017-02-20T05:24:44.701Z,21.19
2017-02-20T05:25:12.913Z,21.28
2017-02-20T05:25:40.990Z,21.22
2017-02-20T05:26:09.226Z,21.23
2017-02-20T05:26:37.260Z,21.23
2017-02-20T05:27:05.370Z,21.23
2017-02-20T05:27:33.480Z,21.23
2017-02-20T05:28:01.720Z,21.28
2017-02-20T05:28:29.746Z,21.28
2017-02-20T05:28:57.872Z,21.33
2017-02-20T05:29:25.989Z,21.31
2017-02-20T05:29:54.012Z,21.31
2017-02-20T05:30:22.172Z,21.33
2017-02-20T05:30:50.329Z,21.33
2017-02-20T05:31:18.322Z,21.27
2017-02-20T05:31:46.464Z,21.31
2017-02-20T05:32:14.573Z,21.31
2017-02-20T05:32:42.685Z,21.31
2017-02-20T05:33:10.911Z,21.27
2017-02-20T05:33:38.994Z,21.23
2017-02-20T05:34:07.048Z,21.25
2017-02-20T05:34:35.156Z,21.25
2017-02-20T05:35:03.258Z,21.22
2017-02-20T05:35:31.381Z,21.28
2017-02-20T05:35:59.597Z,21.25
2017-02-20T05:36:27.837Z,21.23
2017-02-20T05:36:55.866Z,21.27
2017-02-20T05:37:24.027Z,21.21
2017-02-20T05:37:52.243Z,21.27
2017-02-20T05:38:20.433Z,21.25
2017-02-20T05:38:48.454Z,21.27
2017-02-20T05:39:16.685Z,21.23
2017-02-20T05:39:44.783Z,21.23
2017-02-20T05:40:12.931Z,21.23
2017-02-20T05:40:41.097Z,21.33
2017-02-20T05:41:09.264Z,21.23
2017-02-20T05:41:37.132Z,21.27
2017-02-20T05:42:05.262Z,21.34
2017-02-20T05:42:33.264Z,21.3
2017-02-20T05:43:01.471Z,21.25
2017-02-20T05:43:29.562Z,21.31
2017-02-20T05:43:57.723Z,21.27
2017-02-20T05:44:25.928Z,21.3
2017-02-20T05:44:54.101Z,21.27
2017-02-20T05:45:22.217Z,21.31
2017-02-20T05:45:50.345Z,21.34
2017-02-20T05:46:18.502Z,21.33
2017-02-20T05:46:46.739Z,21.23
2017-02-20T05:47:14.911Z,21.23
2017-02-20T05:47:42.979Z,21.25
2017-02-20T05:48:11.092Z,21.21
2017-02-20T05:48:39.134Z,21.22
2017-02-20T05:49:07.276Z,21.27
2017-02-20T05:49:35.380Z,21.13
2017-02-20T05:50:03.416Z,21.23
2017-02-20T05:50:31.609Z,21.27
2017-02-20T05:50:59.608Z,21.13
2017-02-20T05:51:27.825Z,21.25
2017-02-20T05:51:56.035Z,21.15
2017-02-20T05:52:24.217Z,21.12
2017-02-20T05:52:52.297Z,21.13
2017-02-20T05:53:20.366Z,21.16
2017-02-20T05:53:48.543Z,21.15
2017-02-20T05:54:16.754Z,21.08
2017-02-20T05:54:44.963Z,21.11
2017-02-20T05:55:13.026Z,21.13
2017-02-20T05:55:41.026Z,21.08
2017-02-20T05:56:09.018Z,21.13
2017-02-20T05:56:37.154Z,20.98
2017-02-20T05:57:05.184Z,21.01
2017-02-20T05:57:33.284Z,21.04
2017-02-20T05:58:01.374Z,21.03
2017-02-20T05:58:29.590Z,21
2017-02-20T05:58:57.709Z,21.06
2017-02-20T05:59:25.951Z,20.98
2017-02-20T05:59:54.130Z,20.94
2017-02-20T06:00:22.224Z,20.97
2017-02-20T06:00:50.392Z,21
2017-02-20T06:01:18.567Z,21.01
2017-02-20T06:01:46.690Z,21.01
2017-02-20T06:02:14.632Z,20.98
2017-02-20T06:02:42.866Z,21.01
2017-02-20T06:03:11.037Z,21.01
2017-02-20T06:03:39.355Z,20.98
2017-02-20T06:04:07.412Z,21.03